createdAt,value
2022-11-07T00:01:49.325Z,1.50
2022-11-07T00:04:36.016Z,1.25
2022-11-07T00:07:22.435Z,2.78
2022-11-07T00:10:08.765Z,0.93
2022-11-07T00:12:55.041Z,3.15
2022-11-07T00:15:40.847Z,2.50
2022-11-07T00:18:26.892Z,0.80
2022-11-07T00:21:12.911Z,1.45
2022-11-07T00:23:59.949Z,1.00
2022-11-07T00:26:47.239Z,0.98
2022-11-07T00:29:33.332Z,1.85
2022-11-07T00:32:19.324Z,0.85
2022-11-07T00:35:05.624Z,2.30
2022-11-07T00:37:53.664Z,2.38
2022-11-07T00:40:39.640Z,0.98
2022-11-07T00:43:26.352Z,1.20
2022-11-07T00:46:14.821Z,1.13
2022-11-07T00:49:01.084Z,1.20
2022-11-07T00:51:47.000Z,1.10
2022-11-07T00:54:33.090Z,1.30
2022-11-07T00:57:19.092Z,0.80
2022-11-07T01:00:05.920Z,2.80
2022-11-07T01:06:02.140Z,1.45
2022-11-07T01:08:48.284Z,1.75
2022-11-07T01:11:36.383Z,1.30
2022-11-07T01:14:23.190Z,1.48
2022-11-07T01:17:09.456Z,2.85
2022-11-07T01:19:55.447Z,1.30
2022-11-07T01:22:41.264Z,0.80
2022-11-07T01:25:27.363Z,0.75
2022-11-07T01:28:13.350Z,1.45
2022-11-07T01:31:02.355Z,1.40
2022-11-07T01:33:48.520Z,1.45
2022-11-07T01:36:34.831Z,1.27
2022-11-07T01:39:20.775Z,0.90
2022-11-07T01:42:06.769Z,1.58
2022-11-07T01:44:56.990Z,1.10
2022-11-07T01:47:43.911Z,1.10
2022-11-07T01:50:30.904Z,1.55
2022-11-07T01:53:17.472Z,1.23
2022-11-07T01:56:06.911Z,1.00
2022-11-07T01:58:54.852Z,1.02
2022-11-07T02:01:41.871Z,3.03
2022-11-07T02:04:30.454Z,1.73
2022-11-07T02:07:22.275Z,3.05
2022-11-07T02:10:09.656Z,1.23
2022-11-07T02:12:58.804Z,3.45
2022-11-07T02:15:44.953Z,2.60
2022-11-07T02:18:34.083Z,1.67
2022-11-07T02:21:51.952Z,1.38
2022-11-07T02:24:39.184Z,1.00
2022-11-07T02:27:28.490Z,0.90
2022-11-07T02:30:18.115Z,1.92
2022-11-07T02:33:16.317Z,1.95
2022-11-07T02:36:02.942Z,1.30
2022-11-07T02:38:57.607Z,0.70
2022-11-07T02:41:44.464Z,1.60
2022-11-07T02:44:30.911Z,1.77
2022-11-07T02:47:16.955Z,1.33
2022-11-07T02:50:07.622Z,1.00
2022-11-07T02:52:53.887Z,2.40
2022-11-07T02:55:39.952Z,2.53
2022-11-07T02:58:25.968Z,0.95
2022-11-07T03:01:12.448Z,1.20
2022-11-07T03:03:58.860Z,1.05
2022-11-07T03:06:44.682Z,1.80
2022-11-07T03:09:30.585Z,1.50
2022-11-07T03:12:16.595Z,1.98
2022-11-07T03:15:02.502Z,1.23
2022-11-07T03:17:48.503Z,2.42
2022-11-07T03:20:34.633Z,1.45
2022-11-07T03:23:20.616Z,1.35
2022-11-07T03:26:06.754Z,1.90
2022-11-07T03:28:53.116Z,1.73
2022-11-07T03:31:38.988Z,1.27
2022-11-07T03:34:24.895Z,1.45
2022-11-07T03:37:11.158Z,1.42
2022-11-07T03:39:57.082Z,2.93
2022-11-07T03:42:44.592Z,2.78
2022-11-07T03:45:30.976Z,2.53
2022-11-07T03:48:16.919Z,1.15
2022-11-07T03:51:02.863Z,1.10
2022-11-07T03:53:48.815Z,1.65
2022-11-07T03:56:34.788Z,1.10
2022-11-07T03:59:20.634Z,8.30
2022-11-07T04:02:06.638Z,2.17
2022-11-07T04:04:52.948Z,0.90
2022-11-07T04:07:39.161Z,1.20
2022-11-07T04:10:25.313Z,2.50
2022-11-07T04:13:29.909Z,1.88
2022-11-07T04:16:37.334Z,1.35
2022-11-07T04:19:26.468Z,0.98
2022-11-07T04:22:14.105Z,2.80
2022-11-07T04:25:00.255Z,1.92
2022-11-07T04:27:46.887Z,1.80
2022-11-07T04:30:33.204Z,3.15
2022-11-07T04:33:19.060Z,2.37
2022-11-07T04:36:05.208Z,1.25
2022-11-07T04:38:51.173Z,1.10
2022-11-07T04:41:37.104Z,1.83
2022-11-07T04:44:23.365Z,1.17
2022-11-07T04:47:09.434Z,1.55
2022-11-07T04:49:55.488Z,1.30
2022-11-07T04:52:41.591Z,1.60
2022-11-07T04:55:30.700Z,1.55
2022-11-07T04:58:16.672Z,1.88
2022-11-07T05:01:02.715Z,1.20
2022-11-07T05:03:48.736Z,1.17
2022-11-07T05:06:37.153Z,2.40
2022-11-07T05:09:23.102Z,2.85
2022-11-07T05:12:09.996Z,1.15
2022-11-07T05:14:55.962Z,1.77
2022-11-07T05:17:42.052Z,1.98
2022-11-07T05:20:32.077Z,2.45
2022-11-07T05:23:19.403Z,1.85
2022-11-07T05:26:06.265Z,2.17
2022-11-07T05:28:52.152Z,1.40
2022-11-07T05:31:38.201Z,1.92
2022-11-07T05:34:24.185Z,1.30
2022-11-07T05:37:11.885Z,1.20
2022-11-07T05:39:57.997Z,2.25
2022-11-07T05:42:43.891Z,3.20
2022-11-07T05:45:31.350Z,3.90
2022-11-07T05:48:17.288Z,3.38
2022-11-07T05:51:04.771Z,1.92
2022-11-07T05:53:50.596Z,3.03
2022-11-07T05:56:37.508Z,2.47
2022-11-07T05:59:23.571Z,3.22
2022-11-07T06:02:09.907Z,3.47
2022-11-07T06:04:57.366Z,2.88
2022-11-07T06:07:43.233Z,4.28
2022-11-07T06:10:29.243Z,3.83
2022-11-07T06:13:16.934Z,2.97
2022-11-07T06:16:03.969Z,2.53
2022-11-07T06:18:50.470Z,5.10
2022-11-07T06:21:36.438Z,4.22
2022-11-07T06:24:22.377Z,3.20
2022-11-07T06:27:08.445Z,2.50
2022-11-07T06:29:54.680Z,5.63
2022-11-07T06:32:44.216Z,7.10
2022-11-07T06:35:31.063Z,3.17
2022-11-07T06:38:17.196Z,4.50
2022-11-07T06:41:08.846Z,3.47
2022-11-07T06:43:54.936Z,3.80
2022-11-07T06:46:40.838Z,2.83
2022-11-07T06:49:26.784Z,3.22
2022-11-07T06:52:13.012Z,3.45
2022-11-07T06:54:58.963Z,6.15
2022-11-07T06:57:45.228Z,2.13
2022-11-07T07:00:33.719Z,4.32
2022-11-07T07:03:19.802Z,2.58
2022-11-07T07:06:07.392Z,2.17
2022-11-07T07:08:54.584Z,1.85
2022-11-07T07:14:28.457Z,1.73
2022-11-07T07:17:14.424Z,2.40
2022-11-07T07:20:00.305Z,2.83
2022-11-07T07:22:48.244Z,2.53
2022-11-07T07:25:38.030Z,2.10
2022-11-07T07:28:24.006Z,3.60
2022-11-07T07:31:17.828Z,4.13
2022-11-07T07:34:04.049Z,2.25
2022-11-07T07:36:50.075Z,1.63
2022-11-07T07:39:36.033Z,4.13
2022-11-07T07:42:21.985Z,5.57
2022-11-07T07:45:09.155Z,2.53
2022-11-07T07:48:02.036Z,1.70
2022-11-07T07:50:49.794Z,1.10
2022-11-07T07:53:35.643Z,2.05
2022-11-07T07:56:21.968Z,1.53
2022-11-07T07:59:07.764Z,1.20
2022-11-07T08:01:56.859Z,5.63
2022-11-07T08:04:44.155Z,2.00
2022-11-07T08:07:30.224Z,1.92
2022-11-07T08:13:25.332Z,2.25
2022-11-07T08:16:11.520Z,2.00
2022-11-07T08:18:57.602Z,3.15
2022-11-07T08:21:44.499Z,2.58
2022-11-07T08:24:30.708Z,3.45
2022-11-07T08:27:16.769Z,3.22
2022-11-07T08:30:07.420Z,3.35
2022-11-07T08:32:53.994Z,2.50
2022-11-07T08:35:42.741Z,2.13
2022-11-07T08:38:31.101Z,1.50
2022-11-07T08:41:21.945Z,2.30
2022-11-07T08:44:09.649Z,1.65
2022-11-07T08:46:55.477Z,4.53
2022-11-07T08:49:41.437Z,1.37
2022-11-07T08:52:27.374Z,3.67
2022-11-07T08:55:13.243Z,5.30
2022-11-07T08:58:01.202Z,1.10
2022-11-07T09:00:47.271Z,1.45
2022-11-07T09:03:46.027Z,1.58
2022-11-07T09:06:35.240Z,2.97
2022-11-07T09:09:21.359Z,0.90
2022-11-07T09:12:07.813Z,1.57
2022-11-07T09:14:53.766Z,2.38
2022-11-07T09:17:39.660Z,3.63
2022-11-07T09:20:25.908Z,2.28
2022-11-07T09:23:11.785Z,1.17
2022-11-07T09:26:01.181Z,2.05
2022-11-07T09:28:52.152Z,1.05
2022-11-07T09:31:40.132Z,1.90
2022-11-07T09:34:26.144Z,0.95
2022-11-07T09:37:12.143Z,1.83
2022-11-07T09:39:58.291Z,2.10
2022-11-07T09:43:15.359Z,1.20
2022-11-07T09:46:11.822Z,2.72
2022-11-07T09:49:14.897Z,1.65
2022-11-07T09:52:47.661Z,3.85
2022-11-07T09:55:38.158Z,1.45
2022-11-07T09:58:43.151Z,2.10
2022-11-07T10:01:31.900Z,1.38
2022-11-07T10:04:26.180Z,1.70
2022-11-07T10:07:47.128Z,1.77
2022-11-07T10:10:44.533Z,1.25
2022-11-07T10:13:48.844Z,2.25
2022-11-07T10:16:56.205Z,1.35
2022-11-07T10:20:06.046Z,0.82
2022-11-07T10:23:22.369Z,1.23
2022-11-07T10:26:10.962Z,1.60
2022-11-07T10:29:24.377Z,1.02
2022-11-07T10:32:18.990Z,1.00
2022-11-07T10:35:24.462Z,1.80
2022-11-07T10:38:28.508Z,2.80
2022-11-07T10:41:23.842Z,1.90
2022-11-07T10:44:29.692Z,3.03
2022-11-07T10:47:24.236Z,1.20
2022-11-07T10:50:21.992Z,1.75
2022-11-07T10:53:18.862Z,1.58
2022-11-07T10:56:11.174Z,1.65
2022-11-07T10:58:58.283Z,1.95
2022-11-07T11:01:52.187Z,1.60
2022-11-07T11:04:50.730Z,1.42
2022-11-07T11:07:40.149Z,1.40
2022-11-07T11:10:33.071Z,0.98
2022-11-07T11:13:31.000Z,7.45
2022-11-07T11:16:24.506Z,5.38
2022-11-07T11:19:18.943Z,0.80
2022-11-07T11:22:14.687Z,0.90
2022-11-07T11:25:18.476Z,1.17
2022-11-07T11:28:10.332Z,1.77
2022-11-07T11:31:10.581Z,1.25
2022-11-07T11:34:12.352Z,1.00
2022-11-07T11:37:01.391Z,1.15
2022-11-07T11:39:59.545Z,5.38
2022-11-07T11:42:59.078Z,1.63
2022-11-07T11:46:19.322Z,1.20
2022-11-07T11:49:35.103Z,1.38
2022-11-07T11:52:23.573Z,1.80
2022-11-07T11:55:19.323Z,1.60
2022-11-07T11:58:31.353Z,1.15
2022-11-07T12:01:35.670Z,1.42
2022-11-07T12:04:38.290Z,1.13
2022-11-07T12:07:30.248Z,1.60
2022-11-07T12:10:34.967Z,2.08
2022-11-07T12:13:29.880Z,1.95
2022-11-07T12:16:31.173Z,3.72
2022-11-07T12:19:58.270Z,1.23
2022-11-07T12:22:53.630Z,2.63
2022-11-07T12:25:50.154Z,2.78
2022-11-07T12:28:51.840Z,1.50
2022-11-07T12:31:56.204Z,2.10
2022-11-07T12:35:18.793Z,2.30
2022-11-07T12:38:22.294Z,0.95
2022-11-07T12:41:24.992Z,1.25
2022-11-07T12:44:32.744Z,1.17
2022-11-07T12:47:32.901Z,1.77
2022-11-07T12:50:41.051Z,1.13
2022-11-07T12:56:27.395Z,1.77
2022-11-07T12:59:26.710Z,6.30
2022-11-07T13:02:39.439Z,7.63
2022-11-07T13:05:54.860Z,4.32
2022-11-07T13:09:08.270Z,2.60
2022-11-07T13:12:13.978Z,1.25
2022-11-07T13:15:00.713Z,1.00
2022-11-07T13:17:49.317Z,1.80
2022-11-07T13:20:35.600Z,1.77
2022-11-07T13:23:28.076Z,2.50
2022-11-07T13:26:45.146Z,1.67
2022-11-07T13:29:34.787Z,1.67
2022-11-07T13:32:21.111Z,4.35
2022-11-07T13:35:10.390Z,0.90
2022-11-07T13:38:18.436Z,1.65
2022-11-07T13:41:04.969Z,1.25
2022-11-07T13:44:05.458Z,0.70
2022-11-07T13:46:55.592Z,2.65
2022-11-07T13:49:45.816Z,1.95
2022-11-07T13:52:42.803Z,1.50
2022-11-07T13:56:06.913Z,2.35
2022-11-07T13:58:53.949Z,4.47
2022-11-07T14:01:45.057Z,1.75
2022-11-07T14:04:39.895Z,1.63
2022-11-07T14:07:36.756Z,1.40
2022-11-07T14:10:43.167Z,0.77
2022-11-07T14:13:40.692Z,3.20
2022-11-07T14:16:30.862Z,1.60
2022-11-07T14:19:26.516Z,2.58
2022-11-07T14:22:28.392Z,1.67
2022-11-07T14:25:39.264Z,2.80
2022-11-07T14:28:33.376Z,1.13
2022-11-07T14:31:20.436Z,2.80
2022-11-07T14:34:18.636Z,2.22
2022-11-07T14:37:06.896Z,1.27
2022-11-07T14:39:53.869Z,2.28
2022-11-07T14:42:42.687Z,1.25
2022-11-07T14:46:05.727Z,1.45
2022-11-07T14:48:36.058Z,1.88
2022-11-07T14:51:24.949Z,3.95
2022-11-07T14:54:17.920Z,1.88
2022-11-07T14:57:05.568Z,9.57
2022-11-07T14:59:51.610Z,1.45
2022-11-07T15:02:38.362Z,2.40
2022-11-07T15:05:43.216Z,3.33
2022-11-07T15:08:37.494Z,6.18
2022-11-07T15:11:38.901Z,2.30
2022-11-07T15:14:31.708Z,2.08
2022-11-07T15:17:24.585Z,7.63
2022-11-07T15:20:45.865Z,3.63
2022-11-07T15:23:34.491Z,3.70
2022-11-07T15:26:29.972Z,3.15
2022-11-07T15:29:21.652Z,2.55
2022-11-07T15:32:19.767Z,4.20
2022-11-07T15:35:42.482Z,1.20
2022-11-07T15:38:26.909Z,5.50
2022-11-07T15:41:12.743Z,3.45
2022-11-07T15:43:58.697Z,3.70
2022-11-07T15:46:46.389Z,8.00
2022-11-07T15:49:34.077Z,5.10
2022-11-07T15:52:20.052Z,2.55
2022-11-07T15:55:06.311Z,5.45
2022-11-07T15:57:54.095Z,4.25
2022-11-07T16:00:40.760Z,4.00
2022-11-07T16:03:28.046Z,4.60
2022-11-07T16:06:30.603Z,2.00
2022-11-07T16:09:24.464Z,5.25
2022-11-07T16:12:13.620Z,3.22
2022-11-07T16:15:00.225Z,4.72
2022-11-07T16:17:46.326Z,2.85
2022-11-07T16:20:33.604Z,3.33
2022-11-07T16:23:19.754Z,6.70
2022-11-07T16:26:06.198Z,6.35
2022-11-07T16:28:52.108Z,2.95
2022-11-07T16:31:38.189Z,5.05
2022-11-07T16:34:24.024Z,8.23
2022-11-07T16:37:11.853Z,9.30
2022-11-07T16:39:58.225Z,5.78
2022-11-07T16:42:44.436Z,2.47
2022-11-07T16:45:30.620Z,4.07
2022-11-07T16:48:23.399Z,4.53
2022-11-07T16:51:16.017Z,9.48
2022-11-07T16:54:01.984Z,4.18
2022-11-07T16:56:51.211Z,3.33
2022-11-07T16:59:37.474Z,4.10
2022-11-07T17:02:25.999Z,5.38
2022-11-07T17:05:12.336Z,3.90
2022-11-07T17:08:01.292Z,4.38
2022-11-07T17:10:47.893Z,5.38
2022-11-07T17:13:34.243Z,8.18
2022-11-07T17:16:25.610Z,7.40
2022-11-07T17:19:13.267Z,4.70
2022-11-07T17:22:00.261Z,4.40
2022-11-07T17:24:47.256Z,3.08
2022-11-07T17:27:33.269Z,2.92
2022-11-07T17:30:20.123Z,3.53
2022-11-07T17:33:06.328Z,2.65
2022-11-07T17:35:55.475Z,5.87
2022-11-07T17:38:41.599Z,4.40
2022-11-07T17:41:30.002Z,5.83
2022-11-07T17:44:17.247Z,5.28
2022-11-07T17:47:03.753Z,3.70
2022-11-07T17:52:36.044Z,8.60
2022-11-07T17:55:22.127Z,4.47
2022-11-07T17:58:10.091Z,6.97
2022-11-07T18:00:56.416Z,6.22
2022-11-07T18:03:43.258Z,6.18
2022-11-07T18:06:29.605Z,3.10
2022-11-07T18:09:16.374Z,6.95
2022-11-07T18:14:49.156Z,5.03
2022-11-07T18:17:35.647Z,4.78
2022-11-07T18:20:21.865Z,9.05
2022-11-07T18:23:08.009Z,6.50
2022-11-07T18:26:09.234Z,5.13
2022-11-07T18:28:55.358Z,6.57
2022-11-07T18:31:41.476Z,7.30
2022-11-07T18:34:27.405Z,8.02
2022-11-07T18:37:13.364Z,6.87
2022-11-07T18:39:59.725Z,5.68
2022-11-07T18:42:46.044Z,7.20
2022-11-07T18:45:32.274Z,5.22
2022-11-07T18:48:18.780Z,5.85
2022-11-07T18:51:14.080Z,6.55
2022-11-07T18:54:02.654Z,5.45
2022-11-07T18:56:49.079Z,7.15
2022-11-07T18:59:35.149Z,7.55
2022-11-07T19:02:21.200Z,5.27
2022-11-07T19:05:07.528Z,4.15
2022-11-07T19:07:53.931Z,4.55
2022-11-07T19:10:39.998Z,4.97
2022-11-07T19:13:27.120Z,6.90
2022-11-07T19:16:15.598Z,4.53
2022-11-07T19:19:01.868Z,4.10
2022-11-07T19:21:47.791Z,4.90
2022-11-07T19:24:34.774Z,4.17
2022-11-07T19:27:21.292Z,5.07
2022-11-07T19:30:08.277Z,6.88
2022-11-07T19:32:54.821Z,8.10
2022-11-07T19:35:42.539Z,3.80
2022-11-07T19:38:30.444Z,6.82
2022-11-07T19:41:18.299Z,7.07
2022-11-07T19:44:04.585Z,8.25
2022-11-07T19:46:50.836Z,6.03
2022-11-07T19:49:36.868Z,6.38
2022-11-07T19:52:22.844Z,4.95
2022-11-07T19:55:09.054Z,7.05
2022-11-07T19:57:55.267Z,7.10
2022-11-07T20:00:41.269Z,4.67
2022-11-07T20:03:27.718Z,4.55
2022-11-07T20:06:16.216Z,5.13
2022-11-07T20:09:04.123Z,5.97
2022-11-07T20:11:50.095Z,6.55
2022-11-07T20:14:37.149Z,4.03
2022-11-07T20:17:23.336Z,5.68
2022-11-07T20:20:13.700Z,6.43
2022-11-07T20:23:02.733Z,10.65
2022-11-07T20:25:48.878Z,5.30
2022-11-07T20:28:35.201Z,7.07
2022-11-07T20:31:43.411Z,6.05
2022-11-07T20:34:29.289Z,7.72
2022-11-07T20:37:20.790Z,6.70
2022-11-07T20:40:07.492Z,6.53
2022-11-07T20:42:54.012Z,7.95
2022-11-07T20:45:40.129Z,4.55
2022-11-07T20:48:28.004Z,5.35
2022-11-07T20:51:17.945Z,5.53
2022-11-07T20:54:04.308Z,10.18
2022-11-07T20:56:50.484Z,7.90
2022-11-07T20:59:36.768Z,7.00
2022-11-07T21:02:23.647Z,10.15
2022-11-07T21:05:18.232Z,8.30
2022-11-07T21:08:04.540Z,6.43
2022-11-07T21:10:52.001Z,6.35
2022-11-07T21:13:38.524Z,6.82
2022-11-07T21:16:25.538Z,6.63
2022-11-07T21:19:16.022Z,5.00
2022-11-07T21:22:02.328Z,10.13
2022-11-07T21:24:48.477Z,4.65
2022-11-07T21:27:36.317Z,7.22
2022-11-07T21:30:22.498Z,6.13
2022-11-07T21:33:08.646Z,5.38
2022-11-07T21:35:54.915Z,6.68
2022-11-07T21:38:41.348Z,5.22
2022-11-07T21:41:28.580Z,4.80
2022-11-07T21:44:14.410Z,6.45
2022-11-07T21:47:00.264Z,5.87
2022-11-07T21:49:49.795Z,4.65
2022-11-07T21:52:35.634Z,5.07
2022-11-07T21:55:21.732Z,5.10
2022-11-07T21:58:07.738Z,4.90
2022-11-07T22:00:53.895Z,14.02
2022-11-07T22:04:10.855Z,4.68
2022-11-07T22:06:46.751Z,7.05
2022-11-07T22:09:32.982Z,5.57
2022-11-07T22:12:18.764Z,7.30
2022-11-07T22:15:05.404Z,9.73
2022-11-07T22:17:51.841Z,4.60
2022-11-07T22:20:39.053Z,5.90
2022-11-07T22:23:25.479Z,5.75
2022-11-07T22:26:13.813Z,5.93
2022-11-07T22:28:59.666Z,8.63
2022-11-07T22:31:45.690Z,4.28
2022-11-07T22:34:32.015Z,5.57
2022-11-07T22:37:17.910Z,6.68
2022-11-07T22:40:04.507Z,4.63
2022-11-07T22:42:50.742Z,5.28
2022-11-07T22:45:41.396Z,6.32
2022-11-07T22:48:27.353Z,5.45
2022-11-07T22:51:16.052Z,4.43
2022-11-07T22:54:05.860Z,4.57
2022-11-07T22:56:52.124Z,9.63
2022-11-07T22:59:38.103Z,5.88
2022-11-07T23:02:24.706Z,6.40
2022-11-07T23:05:10.908Z,7.25
2022-11-07T23:07:56.960Z,6.47
2022-11-07T23:10:42.902Z,6.10
2022-11-07T23:13:30.015Z,10.73
2022-11-07T23:16:32.944Z,7.15
2022-11-07T23:19:21.276Z,7.28
2022-11-07T23:22:07.217Z,9.93
2022-11-07T23:24:53.427Z,7.22
2022-11-07T23:27:39.532Z,6.90
2022-11-07T23:30:25.420Z,6.68
2022-11-07T23:33:11.360Z,4.97
2022-11-07T23:36:01.386Z,4.10
2022-11-07T23:38:47.457Z,5.38
2022-11-07T23:41:34.466Z,6.40
2022-11-07T23:44:20.861Z,6.00
2022-11-07T23:47:26.479Z,6.78
2022-11-07T23:50:30.922Z,6.95
2022-11-07T23:53:35.196Z,7.10
2022-11-07T23:56:23.864Z,4.88
2022-11-07T23:59:29.079Z,9.70
